createdAt,value
2022-11-25T00:01:18.861Z,101069.75
2022-11-25T00:03:46.665Z,101073.09
2022-11-25T00:06:19.281Z,101064.81
2022-11-25T00:08:47.904Z,101059.81
2022-11-25T00:11:14.537Z,101068.53
2022-11-25T00:13:41.788Z,101069.72
2022-11-25T00:16:10.783Z,101063.69
2022-11-25T00:18:37.416Z,101067.41
2022-11-25T00:21:08.715Z,101062.50
2022-11-25T00:23:35.902Z,101063.69
2022-11-25T00:26:10.035Z,101059.81
2022-11-25T00:28:38.543Z,101057.44
2022-11-25T00:31:11.184Z,101054.53
2022-11-25T00:33:38.296Z,101053.81
2022-11-25T00:36:06.105Z,101053.75
2022-11-25T00:38:32.554Z,101051.84
2022-11-25T00:41:17.669Z,101054.50
2022-11-25T00:44:02.778Z,101055.25
2022-11-25T00:46:29.191Z,101049.22
2022-11-25T00:48:55.621Z,101052.59
2022-11-25T00:51:22.034Z,101055.97
2022-11-25T00:53:48.519Z,101059.72
2022-11-25T00:56:15.233Z,101059.25
2022-11-25T00:58:43.165Z,101050.94
2022-11-25T01:01:10.411Z,101062.69
2022-11-25T01:03:37.398Z,101054.72
2022-11-25T01:06:08.842Z,101061.22
2022-11-25T01:08:36.588Z,101056.31
2022-11-25T01:11:09.147Z,101050.59
2022-11-25T01:13:35.563Z,101040.44
2022-11-25T01:16:03.649Z,101049.91
2022-11-25T01:18:30.743Z,101038.50
2022-11-25T01:21:18.383Z,101042.31
2022-11-25T01:23:45.342Z,101040.78
2022-11-25T01:26:18.845Z,101043.06
2022-11-25T01:28:45.632Z,101041.53
2022-11-25T01:31:19.415Z,101046.13
2022-11-25T01:33:47.023Z,101055.97
2022-11-25T01:36:16.382Z,101044.25
2022-11-25T01:38:43.637Z,101042.00
2022-11-25T01:41:12.524Z,101050.75
2022-11-25T01:43:39.400Z,101045.00
2022-11-25T01:46:22.187Z,101043.88
2022-11-25T01:48:55.025Z,101034.44
2022-11-25T01:51:28.655Z,101034.75
2022-11-25T01:53:58.221Z,101029.47
2022-11-25T01:56:26.381Z,101032.53
2022-11-25T01:58:53.013Z,101016.97
2022-11-25T02:01:21.633Z,101021.84
2022-11-25T02:03:51.056Z,101022.59
2022-11-25T02:06:24.780Z,101021.06
2022-11-25T02:08:54.071Z,101019.63
2022-11-25T02:11:21.241Z,101017.31
2022-11-25T02:13:49.270Z,101021.09
2022-11-25T02:16:15.828Z,101025.25
2022-11-25T02:18:42.475Z,101029.44
2022-11-25T02:21:09.138Z,101031.00
2022-11-25T02:23:53.765Z,101028.72
2022-11-25T02:26:20.904Z,101029.44
2022-11-25T02:28:47.429Z,101025.66
2022-11-25T02:31:20.169Z,101027.91
2022-11-25T02:33:46.628Z,101026.28
2022-11-25T02:36:16.092Z,101033.22
2022-11-25T02:38:44.316Z,101027.91
2022-11-25T02:41:13.729Z,101029.38
2022-11-25T02:43:41.224Z,101018.00
2022-11-25T02:46:17.420Z,101018.78
2022-11-25T02:49:08.019Z,101020.31
2022-11-25T02:51:34.045Z,101011.91
2022-11-25T02:54:01.524Z,101010.41
2022-11-25T02:56:30.497Z,101009.25
2022-11-25T02:58:57.020Z,101011.16
2022-11-25T03:01:24.008Z,101003.53
2022-11-25T03:03:51.616Z,101001.66
2022-11-25T03:06:18.021Z,101004.69
2022-11-25T03:08:44.650Z,101001.59
2022-11-25T03:11:11.147Z,100992.09
2022-11-25T03:13:37.543Z,100990.09
2022-11-25T03:16:04.332Z,100989.78
2022-11-25T03:18:30.801Z,100988.28
2022-11-25T03:20:57.356Z,100992.38
2022-11-25T03:23:24.550Z,100995.38
2022-11-25T03:25:51.159Z,100993.44
2022-11-25T03:28:17.586Z,100987.34
2022-11-25T03:30:44.061Z,100993.97
2022-11-25T03:33:10.474Z,100989.59
2022-11-25T03:35:36.911Z,100986.56
2022-11-25T03:38:03.443Z,100994.88
2022-11-25T03:40:29.884Z,101004.75
2022-11-25T03:42:56.359Z,101006.91
2022-11-25T03:45:22.761Z,101007.28
2022-11-25T03:47:49.153Z,101015.16
2022-11-25T03:50:16.284Z,101020.06
2022-11-25T03:52:42.893Z,101015.34
2022-11-25T03:55:10.033Z,101010.84
2022-11-25T03:57:36.485Z,101010.38
2022-11-25T04:00:04.447Z,101009.53
2022-11-25T04:02:30.897Z,101015.53
2022-11-25T04:04:57.442Z,101013.28
2022-11-25T04:07:23.905Z,101005.38
2022-11-25T04:09:50.447Z,101009.78
2022-11-25T04:12:35.446Z,101006.56
2022-11-25T04:15:01.840Z,101000.97
2022-11-25T04:17:28.239Z,101004.66
2022-11-25T04:19:54.646Z,101018.84
2022-11-25T04:22:21.064Z,101020.19
2022-11-25T04:24:47.556Z,101013.03
2022-11-25T04:27:14.126Z,101011.41
2022-11-25T04:29:40.663Z,101012.84
2022-11-25T04:32:07.344Z,101016.75
2022-11-25T04:34:34.093Z,101019.13
2022-11-25T04:37:00.862Z,101017.22
2022-11-25T04:39:27.276Z,101018.06
2022-11-25T04:42:13.669Z,101014.47
2022-11-25T04:44:40.084Z,101015.16
2022-11-25T04:47:06.615Z,101015.72
2022-11-25T04:49:33.097Z,101017.94
2022-11-25T04:51:59.623Z,101017.53
2022-11-25T04:54:26.099Z,101012.94
2022-11-25T04:56:52.509Z,101022.88
2022-11-25T04:59:37.565Z,101017.94
2022-11-25T05:02:04.131Z,101016.47
2022-11-25T05:04:30.747Z,101014.06
2022-11-25T05:06:57.202Z,101030.06
2022-11-25T05:09:23.586Z,101015.44
2022-11-25T05:11:50.123Z,101021.47
2022-11-25T05:14:16.681Z,101024.41
2022-11-25T05:16:43.129Z,101022.88
2022-11-25T05:19:09.589Z,101022.97
2022-11-25T05:21:36.122Z,101020.69
2022-11-25T05:24:02.642Z,101018.34
2022-11-25T05:26:29.024Z,101027.41
2022-11-25T05:28:55.469Z,101016.16
2022-11-25T05:31:21.921Z,101019.25
2022-11-25T05:33:48.413Z,101027.78
2022-11-25T05:36:14.790Z,101023.19
2022-11-25T05:38:41.213Z,101019.97
2022-11-25T05:41:08.022Z,101012.41
2022-11-25T05:43:35.202Z,101014.66
2022-11-25T05:46:07.665Z,101016.81
2022-11-25T05:48:34.085Z,101013.09
2022-11-25T05:51:04.256Z,101029.63
2022-11-25T05:53:31.195Z,101028.13
2022-11-25T05:55:59.659Z,101025.06
2022-11-25T05:58:26.612Z,101019.53
2022-11-25T06:00:53.058Z,101021.53
2022-11-25T06:03:19.583Z,101016.59
2022-11-25T06:05:46.156Z,101025.69
2022-11-25T06:08:12.692Z,101018.84
2022-11-25T06:10:42.972Z,101022.13
2022-11-25T06:13:09.711Z,101026.47
2022-11-25T06:15:41.439Z,101027.19
2022-11-25T06:18:08.607Z,101021.78
2022-11-25T06:20:35.163Z,101023.03
2022-11-25T06:23:01.584Z,101019.75
2022-11-25T06:25:28.828Z,101027.59
2022-11-25T06:28:12.466Z,101024.94
2022-11-25T06:30:39.720Z,101035.75
2022-11-25T06:33:06.147Z,101025.66
2022-11-25T06:35:32.538Z,101036.81
2022-11-25T06:37:59.567Z,101042.03
2022-11-25T06:40:26.080Z,101039.53
2022-11-25T06:42:52.657Z,101036.13
2022-11-25T06:45:19.060Z,101047.16
2022-11-25T06:47:45.735Z,101055.38
2022-11-25T06:50:12.355Z,101052.81
2022-11-25T06:52:38.799Z,101047.06
2022-11-25T06:55:05.558Z,101046.22
2022-11-25T06:57:32.024Z,101049.38
2022-11-25T06:59:58.476Z,101049.75
2022-11-25T07:02:24.976Z,101053.34
2022-11-25T07:04:51.418Z,101053.31
2022-11-25T07:07:17.875Z,101047.22
2022-11-25T07:09:44.332Z,101044.78
2022-11-25T07:12:12.369Z,101049.78
2022-11-25T07:14:39.053Z,101059.41
2022-11-25T07:17:10.467Z,101054.09
2022-11-25T07:19:38.572Z,101050.91
2022-11-25T07:22:05.036Z,101053.97
2022-11-25T07:24:31.536Z,101050.78
2022-11-25T07:26:58.014Z,101061.00
2022-11-25T07:32:11.198Z,101078.94
2022-11-25T07:34:38.202Z,101078.84
2022-11-25T07:37:04.637Z,101082.72
2022-11-25T07:39:31.115Z,101092.44
2022-11-25T07:41:57.605Z,101093.34
2022-11-25T07:44:24.063Z,101103.44
2022-11-25T07:46:51.470Z,101104.88
2022-11-25T07:49:20.680Z,101113.63
2022-11-25T07:51:53.707Z,101107.38
2022-11-25T07:54:21.719Z,101122.69
2022-11-25T07:56:49.705Z,101127.44
2022-11-25T07:59:19.102Z,101126.72
2022-11-25T08:01:45.900Z,101125.03
2022-11-25T08:04:19.498Z,101136.44
2022-11-25T08:06:47.702Z,101131.09
2022-11-25T08:09:20.527Z,101139.66
2022-11-25T08:11:47.319Z,101139.66
2022-11-25T08:14:14.733Z,101140.94
2022-11-25T08:16:41.182Z,101148.91
2022-11-25T08:19:11.400Z,101149.22
2022-11-25T08:21:38.018Z,101161.53
2022-11-25T08:24:05.331Z,101156.69
2022-11-25T08:26:36.227Z,101155.41
2022-11-25T08:29:04.037Z,101152.41
2022-11-25T08:31:33.405Z,101171.75
2022-11-25T08:34:00.479Z,101171.53
2022-11-25T08:36:28.976Z,101173.25
2022-11-25T08:38:59.796Z,101171.03
2022-11-25T08:41:29.665Z,101173.41
2022-11-25T08:43:57.536Z,101175.50
2022-11-25T08:46:27.899Z,101178.75
2022-11-25T08:48:55.120Z,101177.84
2022-11-25T08:51:25.683Z,101174.81
2022-11-25T08:53:52.238Z,101177.41
2022-11-25T08:56:25.492Z,101173.84
2022-11-25T08:58:52.666Z,101175.50
2022-11-25T09:01:20.342Z,101175.31
2022-11-25T09:03:49.178Z,101185.78
2022-11-25T09:06:15.810Z,101169.63
2022-11-25T09:08:43.516Z,101177.69
2022-11-25T09:11:10.972Z,101178.22
2022-11-25T09:13:37.781Z,101181.56
2022-11-25T09:16:04.683Z,101178.09
2022-11-25T09:18:32.483Z,101188.78
2022-11-25T09:20:59.330Z,101185.91
2022-11-25T09:23:26.440Z,101190.56
2022-11-25T09:25:54.703Z,101196.09
2022-11-25T09:28:21.893Z,101194.16
2022-11-25T09:30:48.725Z,101200.84
2022-11-25T09:33:15.403Z,101195.28
2022-11-25T09:35:42.273Z,101208.31
2022-11-25T09:38:08.664Z,101204.72
2022-11-25T09:40:55.628Z,101204.38
2022-11-25T09:43:53.506Z,101211.91
2022-11-25T09:46:46.079Z,101211.69
2022-11-25T09:49:28.271Z,101212.47
2022-11-25T09:51:57.671Z,101215.94
2022-11-25T09:54:34.912Z,101215.63
2022-11-25T09:57:38.541Z,101219.22
2022-11-25T10:00:38.960Z,101223.16
2022-11-25T10:03:25.388Z,101226.16
2022-11-25T10:06:00.873Z,101227.31
2022-11-25T10:08:31.100Z,101223.16
2022-11-25T10:11:17.524Z,101225.19
2022-11-25T10:13:55.259Z,101232.31
2022-11-25T10:16:30.376Z,101233.38
2022-11-25T10:19:13.830Z,101227.19
2022-11-25T10:21:40.221Z,101230.22
2022-11-25T10:24:12.902Z,101240.44
2022-11-25T10:26:44.125Z,101228.19
2022-11-25T10:29:13.611Z,101233.47
2022-11-25T10:31:42.326Z,101236.16
2022-11-25T10:34:24.128Z,101233.88
2022-11-25T10:36:51.786Z,101240.25
2022-11-25T10:39:24.566Z,101242.34
2022-11-25T10:41:57.034Z,101248.94
2022-11-25T10:44:25.065Z,101249.59
2022-11-25T10:47:20.013Z,101246.91
2022-11-25T10:50:00.917Z,101241.38
2022-11-25T10:52:30.640Z,101247.59
2022-11-25T10:55:09.526Z,101245.09
2022-11-25T10:57:36.123Z,101256.16
2022-11-25T11:00:05.753Z,101257.97
2022-11-25T11:02:41.711Z,101261.00
2022-11-25T11:05:08.071Z,101256.28
2022-11-25T11:07:38.512Z,101258.31
2022-11-25T11:10:25.390Z,101273.19
2022-11-25T11:12:59.076Z,101264.22
2022-11-25T11:15:28.942Z,101272.34
2022-11-25T11:17:57.011Z,101274.72
2022-11-25T11:20:30.244Z,101268.84
2022-11-25T11:22:58.311Z,101270.47
2022-11-25T11:25:30.544Z,101275.66
2022-11-25T11:27:57.545Z,101273.91
2022-11-25T11:30:27.116Z,101275.00
2022-11-25T11:33:01.338Z,101281.91
2022-11-25T11:35:50.487Z,101279.00
2022-11-25T11:38:38.183Z,101282.31
2022-11-25T11:41:21.606Z,101280.88
2022-11-25T11:44:17.390Z,101286.75
2022-11-25T11:46:59.417Z,101299.03
2022-11-25T11:49:45.533Z,101296.97
2022-11-25T11:52:30.723Z,101297.72
2022-11-25T11:55:17.954Z,101307.03
2022-11-25T11:58:14.801Z,101296.50
2022-11-25T12:01:05.987Z,101296.41
2022-11-25T12:03:38.952Z,101293.91
2022-11-25T12:06:06.462Z,101300.78
2022-11-25T12:08:46.968Z,101299.63
2022-11-25T12:11:36.076Z,101300.78
2022-11-25T12:14:31.746Z,101313.25
2022-11-25T12:17:01.293Z,101313.25
2022-11-25T12:19:33.627Z,101302.81
2022-11-25T12:22:20.589Z,101310.00
2022-11-25T12:24:54.151Z,101308.94
2022-11-25T12:27:28.076Z,101308.00
2022-11-25T12:30:22.506Z,101317.53
2022-11-25T12:33:07.201Z,101324.84
2022-11-25T12:35:37.377Z,101322.63
2022-11-25T12:38:12.992Z,101324.44
2022-11-25T12:40:54.480Z,101314.47
2022-11-25T12:43:40.488Z,101334.06
2022-11-25T12:46:16.186Z,101330.09
2022-11-25T12:48:43.302Z,101333.44
2022-11-25T12:51:17.091Z,101345.03
2022-11-25T12:54:04.133Z,101339.44
2022-11-25T12:57:14.638Z,101343.53
2022-11-25T13:00:24.964Z,101350.38
2022-11-25T13:03:21.850Z,101341.09
2022-11-25T13:06:10.644Z,101340.16
2022-11-25T13:08:49.214Z,101345.38
2022-11-25T13:11:34.184Z,101352.47
2022-11-25T13:14:13.202Z,101344.69
2022-11-25T13:16:41.656Z,101347.25
2022-11-25T13:19:09.406Z,101350.63
2022-11-25T13:21:35.859Z,101359.22
2022-11-25T13:24:03.315Z,101360.63
2022-11-25T13:26:29.785Z,101356.84
2022-11-25T13:28:56.916Z,101359.22
2022-11-25T13:31:34.815Z,101365.69
2022-11-25T13:34:29.529Z,101361.31
2022-11-25T13:36:58.044Z,101369.16
2022-11-25T13:39:24.378Z,101372.38
2022-11-25T13:42:12.830Z,101369.47
2022-11-25T13:44:56.911Z,101378.50
2022-11-25T13:47:38.749Z,101378.81
2022-11-25T13:50:21.978Z,101382.94
2022-11-25T13:52:57.573Z,101384.59
2022-11-25T13:55:41.605Z,101393.66
2022-11-25T13:58:10.929Z,101395.88
2022-11-25T14:00:37.300Z,101393.94
2022-11-25T14:03:19.137Z,101402.75
2022-11-25T14:06:12.347Z,101401.44
2022-11-25T14:08:53.985Z,101409.69
2022-11-25T14:11:42.144Z,101410.53
2022-11-25T14:14:48.056Z,101411.44
2022-11-25T14:17:15.947Z,101415.06
2022-11-25T14:19:54.619Z,101421.59
2022-11-25T14:22:39.931Z,101424.00
2022-11-25T14:25:27.586Z,101415.47
2022-11-25T14:28:04.867Z,101430.13
2022-11-25T14:30:32.706Z,101427.81
2022-11-25T14:33:03.209Z,101429.03
2022-11-25T14:35:40.324Z,101430.03
2022-11-25T14:38:19.609Z,101441.34
2022-11-25T14:41:00.630Z,101448.31
2022-11-25T14:43:28.506Z,101446.78
2022-11-25T14:46:20.710Z,101443.34
2022-11-25T14:48:54.085Z,101448.28
2022-11-25T14:51:20.957Z,101445.94
2022-11-25T14:53:48.901Z,101450.94
2022-11-25T14:56:26.086Z,101445.84
2022-11-25T14:58:54.464Z,101452.75
2022-11-25T15:01:29.041Z,101449.34
2022-11-25T15:04:15.978Z,101454.84
2022-11-25T15:06:47.421Z,101454.06
2022-11-25T15:09:20.327Z,101467.97
2022-11-25T15:11:47.028Z,101471.75
2022-11-25T15:14:28.611Z,101472.31
2022-11-25T15:16:56.345Z,101475.22
2022-11-25T15:19:30.598Z,101486.84
2022-11-25T15:24:54.673Z,101484.47
2022-11-25T15:27:28.470Z,101488.91
2022-11-25T15:29:56.300Z,101487.28
2022-11-25T15:32:25.962Z,101492.00
2022-11-25T15:34:53.647Z,101497.34
2022-11-25T15:37:20.204Z,101509.13
2022-11-25T15:39:49.453Z,101506.69
2022-11-25T15:42:26.600Z,101512.50
2022-11-25T15:44:55.109Z,101516.44
2022-11-25T15:47:32.063Z,101501.88
2022-11-25T15:50:13.401Z,101508.78
2022-11-25T15:52:40.579Z,101519.03
2022-11-25T15:55:08.418Z,101527.59
2022-11-25T15:57:36.342Z,101528.81
2022-11-25T16:00:16.620Z,101526.03
2022-11-25T16:02:43.017Z,101540.06
2022-11-25T16:05:12.216Z,101544.16
2022-11-25T16:07:54.830Z,101544.53
2022-11-25T16:10:31.611Z,101546.72
2022-11-25T16:13:21.782Z,101547.50
2022-11-25T16:15:52.799Z,101556.31
2022-11-25T16:21:17.682Z,101567.09
2022-11-25T16:23:46.292Z,101566.28
2022-11-25T16:26:12.654Z,101564.19
2022-11-25T16:28:49.664Z,101572.75
2022-11-25T16:31:20.092Z,101574.97
2022-11-25T16:33:46.643Z,101584.09
2022-11-25T16:36:13.446Z,101582.41
2022-11-25T16:38:39.852Z,101585.84
2022-11-25T16:41:14.652Z,101592.94
2022-11-25T16:43:41.089Z,101598.84
2022-11-25T16:46:07.747Z,101598.66
2022-11-25T16:48:34.445Z,101599.47
2022-11-25T16:51:01.035Z,101603.19
2022-11-25T16:53:27.716Z,101605.78
2022-11-25T16:55:54.215Z,101608.66
2022-11-25T16:58:24.418Z,101622.66
2022-11-25T17:00:53.138Z,101615.69
2022-11-25T17:03:20.765Z,101613.28
2022-11-25T17:05:47.954Z,101617.22
2022-11-25T17:08:15.135Z,101628.22
2022-11-25T17:10:43.361Z,101624.34
2022-11-25T17:13:17.628Z,101642.84
2022-11-25T17:15:44.232Z,101630.09
2022-11-25T17:18:12.406Z,101638.47
2022-11-25T17:20:38.985Z,101645.06
2022-11-25T17:23:11.696Z,101640.94
2022-11-25T17:25:38.110Z,101640.88
2022-11-25T17:28:04.815Z,101652.84
2022-11-25T17:30:32.432Z,101650.09
2022-11-25T17:33:04.275Z,101665.38
2022-11-25T17:35:30.753Z,101661.91
2022-11-25T17:38:00.668Z,101671.69
2022-11-25T17:40:27.203Z,101667.81
2022-11-25T17:42:53.729Z,101671.72
2022-11-25T17:45:21.735Z,101681.72
2022-11-25T17:47:48.498Z,101679.41
2022-11-25T17:50:14.902Z,101686.56
2022-11-25T17:52:41.346Z,101686.72
2022-11-25T17:55:08.140Z,101689.34
2022-11-25T17:57:34.671Z,101694.59
2022-11-25T18:00:01.556Z,101696.41
2022-11-25T18:02:28.289Z,101701.53
2022-11-25T18:04:55.198Z,101700.16
2022-11-25T18:07:21.821Z,101705.38
2022-11-25T18:09:48.378Z,101705.19
2022-11-25T18:12:27.813Z,101710.00
2022-11-25T18:14:55.290Z,101706.56
2022-11-25T18:17:21.801Z,101710.88
2022-11-25T18:19:54.544Z,101711.75
2022-11-25T18:22:24.043Z,101723.84
2022-11-25T18:24:50.811Z,101714.00
2022-11-25T18:27:32.025Z,101723.28
2022-11-25T18:29:58.899Z,101732.72
2022-11-25T18:32:25.570Z,101738.72
2022-11-25T18:34:52.328Z,101739.34
2022-11-25T18:37:18.724Z,101742.72
2022-11-25T18:39:45.128Z,101746.09
2022-11-25T18:42:24.811Z,101756.91
2022-11-25T18:44:51.433Z,101760.63
2022-11-25T18:47:17.970Z,101759.06
2022-11-25T18:49:44.347Z,101765.88
2022-11-25T18:52:10.756Z,101761.25
2022-11-25T18:54:37.375Z,101772.66
2022-11-25T18:57:04.170Z,101773.75
2022-11-25T18:59:33.795Z,101769.94
2022-11-25T19:02:00.300Z,101772.97
2022-11-25T19:04:26.894Z,101772.16
2022-11-25T19:06:53.371Z,101780.78
2022-11-25T19:09:19.764Z,101782.06
2022-11-25T19:11:49.788Z,101790.63
2022-11-25T19:14:29.889Z,101794.41
2022-11-25T19:17:02.318Z,101798.03
2022-11-25T19:19:28.754Z,101805.31
2022-11-25T19:21:55.172Z,101810.34
2022-11-25T19:24:21.643Z,101811.56
2022-11-25T19:26:50.771Z,101822.22
2022-11-25T19:29:20.068Z,101823.34
2022-11-25T19:31:47.234Z,101839.28
2022-11-25T19:34:24.830Z,101844.75
2022-11-25T19:36:51.387Z,101852.13
2022-11-25T19:39:18.616Z,101852.97
2022-11-25T19:41:45.373Z,101855.19
2022-11-25T19:44:11.843Z,101861.47
2022-11-25T19:47:12.985Z,101864.44
2022-11-25T19:49:28.456Z,101863.22
2022-11-25T19:51:55.775Z,101877.78
2022-11-25T19:54:22.182Z,101877.47
2022-11-25T19:56:49.247Z,101883.81
2022-11-25T19:59:15.803Z,101887.78
2022-11-25T20:01:43.824Z,101898.66
2022-11-25T20:04:16.916Z,101901.22
2022-11-25T20:06:43.484Z,101901.25
2022-11-25T20:09:13.072Z,101906.56
2022-11-25T20:11:39.651Z,101906.88
2022-11-25T20:14:06.169Z,101919.94
2022-11-25T20:16:39.659Z,101924.16
2022-11-25T20:19:07.615Z,101932.19
2022-11-25T20:21:37.020Z,101926.13
2022-11-25T20:24:04.990Z,101936.19
2022-11-25T20:26:37.082Z,101933.16
2022-11-25T20:29:14.986Z,101932.44
2022-11-25T20:31:41.552Z,101931.78
2022-11-25T20:34:08.058Z,101941.41
2022-11-25T20:36:34.643Z,101939.88
2022-11-25T20:39:01.996Z,101953.25
2022-11-25T20:41:29.073Z,101959.38
2022-11-25T20:43:56.626Z,101954.81
2022-11-25T20:46:26.185Z,101963.56
2022-11-25T20:48:55.974Z,101972.38
2022-11-25T20:51:23.297Z,101976.19
2022-11-25T20:53:52.363Z,101978.47
2022-11-25T20:56:21.203Z,101971.59
2022-11-25T20:58:48.057Z,101981.41
2022-11-25T21:01:15.494Z,101986.78
2022-11-25T21:03:42.915Z,101990.66
2022-11-25T21:06:30.019Z,101986.91
2022-11-25T21:09:01.282Z,101988.81
2022-11-25T21:11:28.211Z,101988.44
2022-11-25T21:13:54.660Z,101996.81
2022-11-25T21:16:21.214Z,101993.72
2022-11-25T21:18:47.676Z,101996.78
2022-11-25T21:21:16.754Z,101998.28
2022-11-25T21:23:44.211Z,102006.69
2022-11-25T21:26:17.924Z,102003.59
2022-11-25T21:28:45.859Z,102005.88
2022-11-25T21:31:21.926Z,102007.38
2022-11-25T21:33:49.294Z,102009.63
2022-11-25T21:36:21.834Z,102010.44
2022-11-25T21:38:50.373Z,102019.56
2022-11-25T21:41:17.203Z,102023.38
2022-11-25T21:43:45.725Z,102022.59
2022-11-25T21:46:14.724Z,102018.03
2022-11-25T21:48:41.428Z,102020.69
2022-11-25T21:51:10.638Z,102027.88
2022-11-25T21:53:37.566Z,102027.88
2022-11-25T21:56:06.327Z,102030.19
2022-11-25T21:58:32.860Z,102038.88
2022-11-25T22:01:01.221Z,102036.16
2022-11-25T22:03:30.283Z,102036.91
2022-11-25T22:05:56.762Z,102041.44
2022-11-25T22:08:23.876Z,102039.66
2022-11-25T22:10:51.701Z,102041.88
2022-11-25T22:13:21.405Z,102041.91
2022-11-25T22:15:51.556Z,102048.38
2022-11-25T22:18:22.232Z,102059.06
2022-11-25T22:20:53.299Z,102055.22
2022-11-25T22:23:20.761Z,102054.84
2022-11-25T22:25:48.306Z,102062.84
2022-11-25T22:28:15.725Z,102066.59
2022-11-25T22:30:46.473Z,102065.00
2022-11-25T22:33:13.896Z,102063.84
2022-11-25T22:35:40.437Z,102064.59
2022-11-25T22:38:13.991Z,102078.50
2022-11-25T22:40:42.415Z,102076.97
2022-11-25T22:43:16.213Z,102081.22
2022-11-25T22:45:42.692Z,102081.63
2022-11-25T22:48:15.756Z,102086.91
2022-11-25T22:50:43.252Z,102086.97
2022-11-25T22:53:14.648Z,102087.63
2022-11-25T22:55:41.470Z,102096.72
2022-11-25T22:58:08.173Z,102099.59
2022-11-25T23:00:38.335Z,102098.66
2022-11-25T23:03:06.905Z,102102.91
2022-11-25T23:05:35.683Z,102115.06
2022-11-25T23:08:10.416Z,102115.06
2022-11-25T23:10:36.803Z,102104.44
2022-11-25T23:13:03.238Z,102100.91
2022-11-25T23:15:29.993Z,102108.84
2022-11-25T23:18:01.618Z,102115.53
2022-11-25T23:20:29.252Z,102117.91
2022-11-25T23:22:56.313Z,102124.66
2022-11-25T23:25:23.381Z,102132.22
2022-11-25T23:27:50.138Z,102120.25
2022-11-25T23:30:21.598Z,102137.69
2022-11-25T23:32:52.560Z,102130.78
2022-11-25T23:35:21.160Z,102130.69
2022-11-25T23:37:55.090Z,102141.28
2022-11-25T23:40:22.648Z,102142.72
2022-11-25T23:42:49.509Z,102152.53
2022-11-25T23:45:19.358Z,102150.31
2022-11-25T23:47:48.496Z,102151.13
2022-11-25T23:50:18.599Z,102145.31
2022-11-25T23:52:45.095Z,102156.19
2022-11-25T23:55:19.571Z,102164.09
2022-11-25T23:57:47.404Z,102169.75
